Crew | Aerofun Virtual



 METAR AND TAF INFORMATION
METAR FOR GCHI
ADDS - METARS form results

(0316 UTC 23 September 2019)
Data provider http://aviationweather.gov/metar/data/
 
METAR text: GCHI 230300Z AUTO 04008KT 010V070 9999 OVC031 23/21 Q1019
Conditions at: GCHI (HIERRO AIRPORT , ES) observed 0300 UTC 23 September 2019
Temperature: 23.0°C (73°F)
Dewpoint: 21.0°C (70°F) [RH = 89%]
Pressure (altimeter): 30.09 inches Hg (1019.0 mb)
Winds: from the NE (40 degrees) at 9 MPH (8 knots; 4.1 m/s)
Visibility: 6 or more miles (10+ km)
Ceiling: 3100 feet AGL
Clouds: overcast cloud deck at 3100 feet AGL
Weather: no significant weather observed at this time

METAR text: GCHI 230230Z AUTO 04009KT 9999 OVC030 23/21 Q1019
Conditions at: GCHI (HIERRO AIRPORT , ES) observed 0230 UTC 23 September 2019
Temperature: 23.0°C (73°F)
Dewpoint: 21.0°C (70°F) [RH = 89%]
Pressure (altimeter): 30.09 inches Hg (1019.0 mb)
Winds: from the NE (40 degrees) at 10 MPH (9 knots; 4.6 m/s)
Visibility: 6 or more miles (10+ km)
Ceiling: 3000 feet AGL
Clouds: overcast cloud deck at 3000 feet AGL
Weather: no significant weather observed at this time

Forecast for: COR
Text: TAF COR GCHI 230223Z 2303/2403 02009KT 9999 BKN020 TX25/2314Z TN22/2305Z
Forecast period: 0300 UTC 23 September 2019 to 0300 UTC 24 September 2019
Forecast type: FROM: standard forecast or significant change
Winds: from the NNE (20 degrees) at 10 MPH (9 knots; 4.6 m/s)
Visibility: 6 or more miles 10+ km)
Ceiling: 2000 feet AGL
Clouds: broken clouds at 2000 feet AGL
Weather: no significant weather forecast for this period
Text: PROB30
Forecast period: 0300 to 0800 UTC 23 September 2019
Forecast type: TEMPORARY: The following changes expected for less than half the time period
Visibility: missing
Ceiling: 1400 feet AGL
Clouds: broken clouds at 1400 feet AGL
Weather: no significant weather forecast for this period

 AIRPORT MAP

 RUNWAY INFORMATION
Runway 16 Runway length 4101 ft Runway width 98 ft
Runway elevation 71 ft Runway displaced threshold 0 ft Runway heading 153
Runway 34 Runway length 4101 ft Runway width 98 ft
Runway elevation 103 ft Runway displaced threshold 0 ft Runway heading 333

 AIRPORT FREQUENCIES
Type A/D Name CANARIAS A Frequency 126.1 MHZ
Type GND Name GND Frequency 121.6 MHZ
Type TWR Name TWR Frequency 118.1 MHZ

 AIRPORT NEAR NAVIGATION AIDS
Type NDB Name Hierro Frequency 376 KHZ
Type DME Name Hierro Frequency 113200 KHZ